createdAt,value
2017-10-10T00:01:32.661Z,22.40
2017-10-10T00:03:59.216Z,17.70
2017-10-10T00:06:25.475Z,21.10
2017-10-10T00:08:51.723Z,19.20
2017-10-10T00:11:18.014Z,19.30
2017-10-10T00:13:44.254Z,30.83
2017-10-10T00:16:10.484Z,22.33
2017-10-10T00:18:36.737Z,18.23
2017-10-10T00:21:02.979Z,19.97
2017-10-10T00:23:29.954Z,20.20
2017-10-10T00:25:56.223Z,24.77
2017-10-10T00:28:22.456Z,29.80
2017-10-10T00:30:48.682Z,22.00
2017-10-10T00:33:15.239Z,23.50
2017-10-10T00:35:41.475Z,23.20
2017-10-10T00:38:08.442Z,25.10
2017-10-10T00:40:34.742Z,31.33
2017-10-10T00:43:01.002Z,29.10
2017-10-10T00:45:27.259Z,26.30
2017-10-10T00:47:53.573Z,36.53
2017-10-10T00:50:19.837Z,32.03
2017-10-10T00:52:46.840Z,31.37
2017-10-10T00:55:13.158Z,29.47
2017-10-10T00:57:40.177Z,36.87
2017-10-10T01:00:06.434Z,31.60
2017-10-10T01:02:33.534Z,32.07
2017-10-10T01:04:59.790Z,35.90
2017-10-10T01:07:26.021Z,32.87
2017-10-10T01:09:53.058Z,26.30
2017-10-10T01:12:19.286Z,25.63
2017-10-10T01:14:45.569Z,29.57
2017-10-10T01:17:12.089Z,20.63
2017-10-10T01:19:38.313Z,25.90
2017-10-10T01:22:04.590Z,24.83
2017-10-10T01:24:30.895Z,23.30
2017-10-10T01:26:57.153Z,22.90
2017-10-10T01:29:23.421Z,21.83
2017-10-10T01:31:49.724Z,22.00
2017-10-10T01:34:15.985Z,18.13
2017-10-10T01:36:42.262Z,18.10
2017-10-10T01:39:08.555Z,18.90
2017-10-10T01:41:34.783Z,17.93
2017-10-10T01:44:01.034Z,19.73
2017-10-10T01:46:27.304Z,20.17
2017-10-10T01:48:54.296Z,22.90
2017-10-10T01:51:20.550Z,25.17
2017-10-10T01:53:46.854Z,25.13
2017-10-10T01:56:13.122Z,35.97
2017-10-10T01:58:39.366Z,29.23
2017-10-10T02:01:06.399Z,26.50
2017-10-10T02:03:32.685Z,25.33
2017-10-10T02:05:58.944Z,27.23
2017-10-10T02:08:25.251Z,29.90
2017-10-10T02:10:51.523Z,23.40
2017-10-10T02:13:18.492Z,25.47
2017-10-10T02:15:45.553Z,24.77
2017-10-10T02:18:11.774Z,24.27
2017-10-10T02:20:38.029Z,24.97
2017-10-10T02:23:04.297Z,25.10
2017-10-10T02:25:30.562Z,26.87
2017-10-10T02:27:56.791Z,22.33
2017-10-10T02:30:23.371Z,24.47
2017-10-10T02:32:49.598Z,23.93
2017-10-10T02:35:15.848Z,22.40
2017-10-10T02:37:42.149Z,23.83
2017-10-10T02:40:08.407Z,22.80
2017-10-10T02:42:34.654Z,24.40
2017-10-10T02:45:01.695Z,19.60
2017-10-10T02:47:28.687Z,20.63
2017-10-10T02:49:54.960Z,26.17
2017-10-10T02:52:21.418Z,21.50
2017-10-10T02:54:47.688Z,25.03
2017-10-10T02:57:13.930Z,23.93
2017-10-10T02:59:40.341Z,33.40
2017-10-10T03:02:06.566Z,37.37
2017-10-10T03:04:32.789Z,37.03
2017-10-10T03:06:59.118Z,38.97
2017-10-10T03:09:25.346Z,38.63
2017-10-10T03:11:51.579Z,44.90
2017-10-10T03:14:17.834Z,48.17
2017-10-10T03:16:44.077Z,56.80
2017-10-10T03:19:10.309Z,44.40
2017-10-10T03:21:36.586Z,54.70
2017-10-10T03:24:02.822Z,50.83
2017-10-10T03:26:29.044Z,64.40
2017-10-10T03:28:55.309Z,54.00
2017-10-10T03:31:21.540Z,53.10
2017-10-10T03:33:47.766Z,65.20
2017-10-10T03:36:14.127Z,60.90
2017-10-10T03:38:41.206Z,60.83
2017-10-10T03:41:07.438Z,65.67
2017-10-10T03:43:33.794Z,63.70
2017-10-10T03:46:00.023Z,68.87
2017-10-10T03:48:26.254Z,65.03
2017-10-10T03:50:52.609Z,63.33
2017-10-10T03:53:19.573Z,78.57
2017-10-10T03:55:45.799Z,80.07
2017-10-10T03:58:12.816Z,71.47
2017-10-10T04:00:39.040Z,86.87
2017-10-10T04:03:05.267Z,85.13
2017-10-10T04:05:31.619Z,82.70
2017-10-10T04:07:58.613Z,98.77
2017-10-10T04:10:25.980Z,81.00
2017-10-10T04:12:52.426Z,85.70
2017-10-10T04:15:18.670Z,87.43
2017-10-10T04:17:44.924Z,98.30
2017-10-10T04:20:11.520Z,101.63
2017-10-10T04:22:37.774Z,85.70
2017-10-10T04:25:05.318Z,96.63
2017-10-10T04:27:33.088Z,90.27
2017-10-10T04:30:00.101Z,83.13
2017-10-10T04:32:26.501Z,97.70
2017-10-10T04:34:52.798Z,90.00
2017-10-10T04:37:19.094Z,91.07
2017-10-10T04:39:45.394Z,80.90
2017-10-10T04:42:12.068Z,80.00
2017-10-10T04:44:39.102Z,82.17
2017-10-10T04:47:05.359Z,105.33
2017-10-10T04:49:31.649Z,75.80
2017-10-10T04:51:57.904Z,86.20
2017-10-10T04:54:24.197Z,85.13
2017-10-10T04:56:50.667Z,84.47
2017-10-10T04:59:18.100Z,83.13
2017-10-10T05:01:45.184Z,88.90
2017-10-10T05:04:11.501Z,84.67
2017-10-10T05:06:37.788Z,99.10
2017-10-10T05:09:04.119Z,86.90
2017-10-10T05:11:30.566Z,90.20
2017-10-10T05:13:57.108Z,96.63
2017-10-10T05:16:23.362Z,89.93
2017-10-10T05:18:49.784Z,91.80
2017-10-10T05:21:16.296Z,88.60
2017-10-10T05:23:43.385Z,88.87
2017-10-10T05:26:10.046Z,99.23
2017-10-10T05:28:37.093Z,97.60
2017-10-10T05:31:04.133Z,136.07
2017-10-10T05:33:31.305Z,157.47
2017-10-10T05:35:58.145Z,99.57
2017-10-10T05:38:24.456Z,116.43
2017-10-10T05:40:51.660Z,135.30
2017-10-10T05:43:17.963Z,131.43
2017-10-10T05:45:44.231Z,91.40
2017-10-10T05:48:10.527Z,112.10
2017-10-10T05:50:36.766Z,100.17
2017-10-10T05:53:03.010Z,118.83
2017-10-10T05:55:30.199Z,100.07
2017-10-10T05:57:57.225Z,90.30
2017-10-10T06:00:23.494Z,119.43
2017-10-10T06:02:50.117Z,81.50
2017-10-10T06:05:17.108Z,109.23
2017-10-10T06:07:43.406Z,103.30
2017-10-10T06:10:09.760Z,84.67
2017-10-10T06:12:36.003Z,88.57
2017-10-10T06:15:02.360Z,97.93
2017-10-10T06:17:28.712Z,91.17
2017-10-10T06:19:55.743Z,98.73
2017-10-10T06:22:21.985Z,91.63
2017-10-10T06:24:49.312Z,102.27
2017-10-10T06:27:15.577Z,98.80
2017-10-10T06:29:42.615Z,75.70
2017-10-10T06:32:09.686Z,77.50
2017-10-10T06:34:35.967Z,72.80
2017-10-10T06:37:02.495Z,70.83
2017-10-10T06:39:29.891Z,68.53
2017-10-10T06:41:57.226Z,79.30
2017-10-10T06:44:23.548Z,75.57
2017-10-10T06:46:50.485Z,151.70
2017-10-10T06:49:16.777Z,76.70
2017-10-10T06:51:43.159Z,76.27
2017-10-10T06:54:09.730Z,83.63
2017-10-10T06:56:36.008Z,105.27
2017-10-10T06:59:02.294Z,94.50
2017-10-10T07:01:28.607Z,112.83
2017-10-10T07:03:54.907Z,71.10
2017-10-10T07:06:21.217Z,84.97
2017-10-10T07:08:48.616Z,71.83
2017-10-10T07:11:14.887Z,72.83
2017-10-10T07:13:41.165Z,85.33
2017-10-10T07:16:08.512Z,79.33
2017-10-10T07:18:35.160Z,74.40
2017-10-10T07:21:01.457Z,72.90
2017-10-10T07:23:28.161Z,73.60
2017-10-10T07:25:54.496Z,63.60
2017-10-10T07:28:20.758Z,105.17
2017-10-10T07:30:47.116Z,81.17
2017-10-10T07:33:14.137Z,92.20
2017-10-10T07:35:40.418Z,114.67
2017-10-10T07:38:06.815Z,90.10
2017-10-10T07:40:33.837Z,82.93
2017-10-10T07:43:00.106Z,74.37
2017-10-10T07:45:27.379Z,86.27
2017-10-10T07:47:53.816Z,79.37
2017-10-10T07:50:20.077Z,96.43
2017-10-10T07:52:46.583Z,97.13
2017-10-10T07:55:12.882Z,68.10
2017-10-10T07:57:39.896Z,80.87
2017-10-10T08:00:06.533Z,68.33
2017-10-10T08:02:32.937Z,78.87
2017-10-10T08:04:59.211Z,75.17
2017-10-10T08:07:25.606Z,72.80
2017-10-10T08:09:51.884Z,72.17
2017-10-10T08:12:18.887Z,65.57
2017-10-10T08:14:45.577Z,68.70
2017-10-10T08:17:12.581Z,50.40
2017-10-10T08:19:38.836Z,70.37
2017-10-10T08:22:05.298Z,75.47
2017-10-10T08:24:31.597Z,67.60
2017-10-10T08:26:57.979Z,66.63
2017-10-10T08:29:24.295Z,69.90
2017-10-10T08:31:50.584Z,63.40
2017-10-10T08:34:16.823Z,72.00
2017-10-10T08:36:43.888Z,70.80
2017-10-10T08:39:10.901Z,62.33
2017-10-10T08:41:37.166Z,60.97
2017-10-10T08:44:04.212Z,51.23
2017-10-10T08:46:30.473Z,65.73
2017-10-10T08:48:56.766Z,67.63
2017-10-10T08:51:23.441Z,60.50
2017-10-10T08:53:51.452Z,64.07
2017-10-10T08:56:17.972Z,55.80
2017-10-10T08:58:44.426Z,60.23
2017-10-10T09:01:11.429Z,62.63
2017-10-10T09:03:37.815Z,63.03
2017-10-10T09:06:05.504Z,136.00
2017-10-10T09:08:31.890Z,112.87
2017-10-10T09:10:58.446Z,59.27
2017-10-10T09:13:25.526Z,79.90
2017-10-10T09:15:51.966Z,67.07
2017-10-10T09:18:18.469Z,61.50
2017-10-10T09:20:44.854Z,170.20
2017-10-10T09:23:11.152Z,128.87
2017-10-10T09:25:37.708Z,71.17
2017-10-10T09:28:04.350Z,71.07
2017-10-10T09:30:30.620Z,95.10
2017-10-10T09:32:58.148Z,75.90
2017-10-10T09:35:25.035Z,169.73
2017-10-10T09:37:51.350Z,113.33
2017-10-10T09:40:18.353Z,70.53
2017-10-10T09:42:44.668Z,90.80
2017-10-10T09:45:10.928Z,77.87
2017-10-10T09:47:37.213Z,101.40
2017-10-10T09:50:03.600Z,98.27
2017-10-10T09:52:29.866Z,58.47
2017-10-10T09:54:56.133Z,81.33
2017-10-10T09:57:22.691Z,58.60
2017-10-10T09:59:48.941Z,66.67
2017-10-10T10:02:15.947Z,61.60
2017-10-10T10:04:43.069Z,62.07
2017-10-10T10:07:09.373Z,53.10
2017-10-10T10:09:36.418Z,55.80
2017-10-10T10:12:03.734Z,72.50
2017-10-10T10:14:29.994Z,64.83
2017-10-10T10:16:56.992Z,52.77
2017-10-10T10:19:23.287Z,56.80
2017-10-10T10:21:50.299Z,56.07
2017-10-10T10:24:16.580Z,52.40
2017-10-10T10:26:42.899Z,65.57
2017-10-10T10:29:09.459Z,70.80
2017-10-10T10:31:35.719Z,52.60
2017-10-10T10:34:02.154Z,58.50
2017-10-10T10:36:28.436Z,64.63
2017-10-10T10:38:54.746Z,61.07
2017-10-10T10:41:21.060Z,72.80
2017-10-10T10:43:48.062Z,61.30
2017-10-10T10:46:14.336Z,57.97
2017-10-10T10:48:41.463Z,66.43
2017-10-10T10:51:07.713Z,67.63
2017-10-10T10:53:34.711Z,57.37
2017-10-10T10:56:01.006Z,56.87
2017-10-10T10:58:27.276Z,52.87
2017-10-10T11:00:53.548Z,60.57
2017-10-10T11:03:20.871Z,84.67
2017-10-10T11:05:47.110Z,105.57
2017-10-10T11:08:13.375Z,98.47
2017-10-10T11:10:39.702Z,42.00
2017-10-10T11:13:05.978Z,52.43
2017-10-10T11:15:32.252Z,91.43
2017-10-10T11:17:59.355Z,46.73
2017-10-10T11:20:25.596Z,52.13
2017-10-10T11:22:51.912Z,29.80
2017-10-10T11:25:18.230Z,43.97
2017-10-10T11:27:44.511Z,36.20
2017-10-10T11:30:11.509Z,29.87
2017-10-10T11:32:37.806Z,33.50
2017-10-10T11:35:04.125Z,33.33
2017-10-10T11:37:31.123Z,31.63
2017-10-10T11:39:57.437Z,35.63
2017-10-10T11:42:23.698Z,25.87
2017-10-10T11:44:50.002Z,28.83
2017-10-10T11:47:16.335Z,25.30
2017-10-10T11:49:43.014Z,27.33
2017-10-10T11:52:10.052Z,25.10
2017-10-10T11:54:39.080Z,28.20
2017-10-10T11:57:06.680Z,27.57
2017-10-10T11:59:34.471Z,26.63
2017-10-10T12:02:02.043Z,23.63
2017-10-10T12:04:29.154Z,25.50
2017-10-10T12:06:57.446Z,28.13
2017-10-10T12:09:24.272Z,18.27
2017-10-10T12:11:52.492Z,23.60
2017-10-10T12:14:20.375Z,112.07
2017-10-10T12:16:47.694Z,23.43
2017-10-10T12:19:16.083Z,65.37
2017-10-10T12:21:43.918Z,20.70
2017-10-10T12:24:10.307Z,25.00
2017-10-10T12:26:36.580Z,19.43
2017-10-10T12:29:03.391Z,20.70
2017-10-10T12:31:29.680Z,26.17
2017-10-10T12:33:56.739Z,13.70
2017-10-10T12:36:24.084Z,30.47
2017-10-10T12:38:51.589Z,24.13
2017-10-10T12:41:17.862Z,16.87
2017-10-10T12:43:44.895Z,30.27
2017-10-10T12:46:11.759Z,21.70
2017-10-10T12:48:39.303Z,24.90
2017-10-10T12:51:06.148Z,16.50
2017-10-10T12:53:32.468Z,14.23
2017-10-10T12:55:58.888Z,16.20
2017-10-10T12:58:26.209Z,18.77
2017-10-10T13:00:52.787Z,11.40
2017-10-10T13:03:20.313Z,39.33
2017-10-10T13:05:47.797Z,18.03
2017-10-10T13:08:14.071Z,16.63
2017-10-10T13:10:40.351Z,19.73
2017-10-10T13:13:07.328Z,48.77
2017-10-10T13:15:34.384Z,15.70
2017-10-10T13:18:01.408Z,16.73
2017-10-10T13:20:28.070Z,14.27
2017-10-10T13:22:55.748Z,15.83
2017-10-10T13:25:22.008Z,17.20
2017-10-10T13:27:48.342Z,17.23
2017-10-10T13:30:14.804Z,18.77
2017-10-10T13:32:41.619Z,14.10
2017-10-10T13:35:09.013Z,28.83
2017-10-10T13:37:36.468Z,20.97
2017-10-10T13:40:04.037Z,29.33
2017-10-10T13:42:31.767Z,21.60
2017-10-10T13:44:58.107Z,22.43
2017-10-10T13:47:24.724Z,24.03
2017-10-10T13:49:51.094Z,19.13
2017-10-10T13:52:18.124Z,15.33
2017-10-10T13:54:44.404Z,22.23
2017-10-10T13:57:11.095Z,20.03
2017-10-10T13:59:37.379Z,22.53
2017-10-10T14:02:03.651Z,25.10
2017-10-10T14:04:30.366Z,24.37
2017-10-10T14:06:56.635Z,27.20
2017-10-10T14:09:22.931Z,27.40
2017-10-10T14:11:49.227Z,30.30
2017-10-10T14:14:15.562Z,28.00
2017-10-10T14:16:41.887Z,31.30
2017-10-10T14:19:08.673Z,29.97
2017-10-10T14:21:34.980Z,27.80
2017-10-10T14:24:01.494Z,30.93
2017-10-10T14:26:28.247Z,26.77
2017-10-10T14:28:54.540Z,29.83
2017-10-10T14:31:21.550Z,31.47
2017-10-10T14:33:48.080Z,88.80
2017-10-10T14:36:15.102Z,42.17
2017-10-10T14:38:41.354Z,43.70
2017-10-10T14:41:08.611Z,47.10
2017-10-10T14:43:34.871Z,39.13
2017-10-10T14:46:01.879Z,36.37
2017-10-10T14:48:28.272Z,34.90
2017-10-10T14:50:54.550Z,20.57
2017-10-10T14:53:20.802Z,29.40
2017-10-10T14:55:47.831Z,30.60
2017-10-10T14:58:14.292Z,30.13
2017-10-10T15:00:41.286Z,26.13
2017-10-10T15:03:07.695Z,17.90
2017-10-10T15:05:34.413Z,26.37
2017-10-10T15:08:00.650Z,21.20
2017-10-10T15:10:27.268Z,25.67
2017-10-10T15:12:54.614Z,30.83
2017-10-10T15:15:21.610Z,33.47
2017-10-10T15:17:47.933Z,26.33
2017-10-10T15:20:14.182Z,32.73
2017-10-10T15:22:40.435Z,30.90
2017-10-10T15:25:07.298Z,35.67
2017-10-10T15:27:34.297Z,31.97
2017-10-10T15:30:00.569Z,38.03
2017-10-10T15:32:28.186Z,37.47
2017-10-10T15:34:54.609Z,39.80
2017-10-10T15:37:20.892Z,37.33
2017-10-10T15:39:48.172Z,35.53
2017-10-10T15:42:14.514Z,40.13
2017-10-10T15:44:40.787Z,35.23
2017-10-10T15:47:07.627Z,34.07
2017-10-10T15:49:33.972Z,44.73
2017-10-10T15:52:00.296Z,43.10
2017-10-10T15:54:26.896Z,46.90
2017-10-10T15:56:53.951Z,38.60
2017-10-10T15:59:20.368Z,43.67
2017-10-10T16:01:46.665Z,41.60
2017-10-10T16:04:13.606Z,38.27
2017-10-10T16:06:39.967Z,46.53
2017-10-10T16:09:07.107Z,34.50
2017-10-10T16:11:33.459Z,32.67
2017-10-10T16:13:59.742Z,40.50
2017-10-10T16:16:26.900Z,45.17
2017-10-10T16:18:53.363Z,40.00
2017-10-10T16:21:20.077Z,37.47
2017-10-10T16:23:46.731Z,43.87
2017-10-10T16:26:12.983Z,49.00
2017-10-10T16:28:39.270Z,47.50
2017-10-10T16:31:05.810Z,47.90
2017-10-10T16:33:32.445Z,55.50
2017-10-10T16:35:58.780Z,50.97
2017-10-10T16:38:25.468Z,56.33
2017-10-10T16:40:51.761Z,54.20
2017-10-10T16:43:18.066Z,41.00
2017-10-10T16:45:44.369Z,43.13
2017-10-10T16:48:10.632Z,54.50
2017-10-10T16:50:36.912Z,56.53
2017-10-10T16:53:03.579Z,52.77
2017-10-10T16:55:30.595Z,61.43
2017-10-10T16:57:56.859Z,61.20
2017-10-10T17:00:24.189Z,52.47
2017-10-10T17:02:50.726Z,56.07
2017-10-10T17:05:17.009Z,66.10
2017-10-10T17:07:43.476Z,58.70
2017-10-10T17:10:09.771Z,66.77
2017-10-10T17:12:36.218Z,54.07
2017-10-10T17:15:02.542Z,67.73
2017-10-10T17:17:28.889Z,61.73
2017-10-10T17:19:55.169Z,66.30
2017-10-10T17:22:22.112Z,64.97
2017-10-10T17:24:49.153Z,85.23
2017-10-10T17:27:16.176Z,61.50
2017-10-10T17:29:43.206Z,63.70
2017-10-10T17:32:09.466Z,67.60
2017-10-10T17:34:36.502Z,68.70
2017-10-10T17:37:03.433Z,64.03
2017-10-10T17:39:29.823Z,73.73
2017-10-10T17:41:56.163Z,68.30
2017-10-10T17:44:22.829Z,55.67
2017-10-10T17:46:49.894Z,50.70
2017-10-10T17:49:16.225Z,61.30
2017-10-10T17:51:42.557Z,71.53
2017-10-10T17:54:08.827Z,52.37
2017-10-10T17:56:35.140Z,63.77
2017-10-10T17:59:01.818Z,63.17
2017-10-10T18:01:28.911Z,54.50
2017-10-10T18:03:55.949Z,63.50
2017-10-10T18:06:22.835Z,55.10
2017-10-10T18:08:49.108Z,46.50
2017-10-10T18:11:15.367Z,63.17
2017-10-10T18:13:42.523Z,62.30
2017-10-10T18:16:09.520Z,60.30
2017-10-10T18:18:35.849Z,55.07
2017-10-10T18:21:02.427Z,69.87
2017-10-10T18:23:29.440Z,59.30
2017-10-10T18:25:55.736Z,53.10
2017-10-10T18:28:22.452Z,47.27
2017-10-10T18:30:49.455Z,52.13
2017-10-10T18:33:16.016Z,52.40
2017-10-10T18:35:43.402Z,60.90
2017-10-10T18:38:09.745Z,50.43
2017-10-10T18:40:36.126Z,49.87
2017-10-10T18:43:02.872Z,52.43
2017-10-10T18:45:29.215Z,51.20
2017-10-10T18:47:57.122Z,47.03
2017-10-10T18:50:24.536Z,43.50
2017-10-10T18:52:50.867Z,53.43
2017-10-10T18:55:17.863Z,47.40
2017-10-10T18:57:44.495Z,44.57
2017-10-10T19:00:11.070Z,88.97
2017-10-10T19:02:37.366Z,46.83
2017-10-10T19:05:03.753Z,48.23
2017-10-10T19:07:30.747Z,43.30
2017-10-10T19:09:57.386Z,45.93
2017-10-10T19:12:24.191Z,48.20
2017-10-10T19:14:50.525Z,52.83
2017-10-10T19:17:17.541Z,33.27
2017-10-10T19:19:44.696Z,32.67
2017-10-10T19:22:11.697Z,37.50
2017-10-10T19:24:38.395Z,37.23
2017-10-10T19:27:05.822Z,42.47
2017-10-10T19:29:32.557Z,30.47
2017-10-10T19:31:58.928Z,34.63
2017-10-10T19:34:25.620Z,34.20
2017-10-10T19:36:52.690Z,38.60
2017-10-10T19:39:19.742Z,36.43
2017-10-10T19:41:46.969Z,39.80
2017-10-10T19:44:13.294Z,36.70
2017-10-10T19:46:39.792Z,46.77
2017-10-10T19:49:06.162Z,40.77
2017-10-10T19:51:32.492Z,30.40
2017-10-10T19:54:00.508Z,25.07
2017-10-10T19:56:28.060Z,32.23
2017-10-10T19:58:54.879Z,29.50
2017-10-10T20:01:22.296Z,39.23
2017-10-10T20:03:49.506Z,37.70
2017-10-10T20:06:15.843Z,24.47
2017-10-10T20:08:42.828Z,36.70
2017-10-10T20:11:09.116Z,33.47
2017-10-10T20:13:35.415Z,36.00
2017-10-10T20:16:01.694Z,40.70
2017-10-10T20:18:28.148Z,18.27
2017-10-10T20:20:54.413Z,25.40
2017-10-10T20:23:20.666Z,33.33
2017-10-10T20:25:47.709Z,25.67
2017-10-10T20:28:14.712Z,27.30
2017-10-10T20:30:41.717Z,23.80
2017-10-10T20:33:08.032Z,31.17
2017-10-10T20:35:35.027Z,28.03
2017-10-10T20:38:01.294Z,32.77
2017-10-10T20:40:28.352Z,27.83
2017-10-10T20:42:55.383Z,27.40
2017-10-10T20:45:22.397Z,25.97
2017-10-10T20:47:48.695Z,26.17
2017-10-10T20:50:15.008Z,28.53
2017-10-10T20:52:42.001Z,21.47
2017-10-10T20:55:08.749Z,29.73
2017-10-10T20:57:34.994Z,27.63
2017-10-10T21:00:01.270Z,26.53
2017-10-10T21:02:27.854Z,20.10
2017-10-10T21:04:54.167Z,20.83
2017-10-10T21:07:20.436Z,28.43
2017-10-10T21:09:48.067Z,26.33
2017-10-10T21:12:14.331Z,20.43
2017-10-10T21:14:41.353Z,21.93
2017-10-10T21:17:07.651Z,21.50
2017-10-10T21:19:33.911Z,20.37
2017-10-10T21:22:00.196Z,20.07
2017-10-10T21:24:26.496Z,22.33
2017-10-10T21:26:53.512Z,25.17
2017-10-10T21:29:19.788Z,23.33
2017-10-10T21:31:46.232Z,20.70
2017-10-10T21:34:12.511Z,23.83
2017-10-10T21:36:38.787Z,21.67
2017-10-10T21:39:05.087Z,24.30
2017-10-10T21:41:32.469Z,30.27
2017-10-10T21:43:58.727Z,26.57
2017-10-10T21:46:25.035Z,34.47
2017-10-10T21:48:51.279Z,31.00
2017-10-10T21:51:17.522Z,29.57
2017-10-10T21:53:43.841Z,25.47
2017-10-10T21:56:10.115Z,28.27
2017-10-10T21:58:37.120Z,31.20
2017-10-10T22:01:03.425Z,30.10
2017-10-10T22:03:29.677Z,28.13
2017-10-10T22:05:55.942Z,27.43
2017-10-10T22:08:22.976Z,32.60
2017-10-10T22:10:49.233Z,29.23
2017-10-10T22:13:16.239Z,34.23
2017-10-10T22:15:42.531Z,28.23
2017-10-10T22:18:08.789Z,32.37
2017-10-10T22:20:35.059Z,35.43
2017-10-10T22:23:02.381Z,31.97
2017-10-10T22:25:28.657Z,36.93
2017-10-10T22:27:54.919Z,38.50
2017-10-10T22:30:21.673Z,44.87
2017-10-10T22:32:47.928Z,35.93
2017-10-10T22:35:14.944Z,37.30
2017-10-10T22:37:41.587Z,37.97
2017-10-10T22:40:08.587Z,34.67
2017-10-10T22:42:34.896Z,37.17
2017-10-10T22:45:02.032Z,33.93
2017-10-10T22:47:28.286Z,47.77
2017-10-10T22:49:55.283Z,41.80
2017-10-10T22:52:21.592Z,45.63
2017-10-10T22:54:47.859Z,33.30
2017-10-10T22:57:14.141Z,34.20
2017-10-10T22:59:40.450Z,43.43
2017-10-10T23:02:06.771Z,35.77
2017-10-10T23:04:33.785Z,37.80
2017-10-10T23:07:00.350Z,35.73
2017-10-10T23:09:27.405Z,34.77
2017-10-10T23:11:54.419Z,39.97
2017-10-10T23:14:21.016Z,31.70
2017-10-10T23:16:47.434Z,36.70
2017-10-10T23:19:13.658Z,30.90
2017-10-10T23:21:40.233Z,37.90
2017-10-10T23:24:06.462Z,26.90
2017-10-10T23:26:33.567Z,27.93
2017-10-10T23:29:00.841Z,33.20
2017-10-10T23:31:27.071Z,27.70
2017-10-10T23:33:53.295Z,31.00
2017-10-10T23:36:19.543Z,36.20
2017-10-10T23:38:45.754Z,30.47
2017-10-10T23:41:11.971Z,41.40
2017-10-10T23:43:38.241Z,32.73
2017-10-10T23:46:04.470Z,35.53
2017-10-10T23:48:30.687Z,43.70
2017-10-10T23:50:57.028Z,36.10
2017-10-10T23:53:23.287Z,37.37
2017-10-10T23:55:50.254Z,36.03
2017-10-10T23:58:16.730Z,35.20
